Time;durP1;ratioP1;P1;durP2;ratioP2;P2;SDS_P1;SDS_P2;PMS_P1;PMS_P2;Temp;Humidity;BMP_temperature;BMP_pressure;BME280_temperature;BME280_humidity;BME280_pressure;Samples;Min_cycle;Max_cycle;Signal;HPM_P1;HPM_P2
2022/06/01 00:00:11;;;;;;;;;;;16.70;75.60;;;;;;6096906;23;19977;-77
2022/06/01 00:02:37;;;;;;;;;;;16.70;76.00;;;;;;6096561;23;20265;-78
2022/06/01 00:05:04;;;;;;;;;;;16.80;76.10;;;;;;6097306;23;19977;-78
2022/06/01 00:07:31;;;;;;;;;;;16.70;75.80;;;;;;6096408;23;20520;-79
2022/06/01 00:09:58;;;;;;;;;;;16.80;75.90;;;;;;6096969;23;20338;-82
2022/06/01 00:12:25;;;;;;;;;;;16.80;75.70;;;;;;6098564;23;19921;-78
2022/06/01 00:14:51;;;;;;;;;;;16.80;75.60;;;;;;6096541;23;19931;-78
2022/06/01 00:17:20;;;;;;;;;;;16.80;75.60;;;;;;6096898;23;19921;-79
2022/06/01 00:19:47;;;;;;;;;;;16.70;75.60;;;;;;6096647;23;19921;-78
2022/06/01 00:22:17;;;;;;;;;;;16.70;76.10;;;;;;6096569;23;19921;-81
2022/06/01 00:24:45;;;;;;;;;;;16.70;76.10;;;;;;6097265;23;19968;-79
2022/06/01 00:27:13;;;;;;;;;;;16.70;76.00;;;;;;6095957;23;19929;-78
2022/06/01 00:29:40;;;;;;;;;;;16.70;75.80;;;;;;6097003;23;19948;-82
2022/06/01 00:32:08;;;;;;;;;;;16.80;75.70;;;;;;6096821;23;19976;-78
2022/06/01 00:34:35;;;;;;;;;;;16.80;76.50;;;;;;6096572;23;19921;-78
2022/06/01 00:37:02;;;;;;;;;;;16.80;75.40;;;;;;6096723;23;19929;-78
2022/06/01 00:39:28;;;;;;;;;;;16.80;75.10;;;;;;6096488;23;20306;-78
2022/06/01 00:42:07;;;;;;;;;;;16.70;75.10;;;;;;6096419;23;19921;-79
2022/06/01 00:44:34;;;;;;;;;;;16.70;74.90;;;;;;6095843;23;19949;-82
2022/06/01 00:47:00;;;;;;;;;;;16.70;75.00;;;;;;6097978;23;20325;-82
2022/06/01 00:49:28;;;;;;;;;;;16.60;74.90;;;;;;6096955;23;20257;-79
2022/06/01 00:51:54;;;;;;;;;;;16.60;75.40;;;;;;6096795;23;20283;-79
2022/06/01 00:54:21;;;;;;;;;;;16.60;75.30;;;;;;6096090;23;20339;-79
2022/06/01 00:56:54;;;;;;;;;;;16.50;75.60;;;;;;6096387;23;19925;-78
2022/06/01 00:59:22;;;;;;;;;;;16.50;75.80;;;;;;6095985;23;19929;-78
2022/06/01 01:01:52;;;;;;;;;;;16.40;76.00;;;;;;6096313;23;20302;-78
2022/06/01 01:04:19;;;;;;;;;;;16.40;76.10;;;;;;6096262;23;20250;-78
2022/06/01 01:06:46;;;;;;;;;;;16.30;76.40;;;;;;6096316;23;19921;-77
2022/06/01 01:09:13;;;;;;;;;;;16.30;76.50;;;;;;6096189;23;19925;-81
2022/06/01 01:11:46;;;;;;;;;;;16.30;76.80;;;;;;6096637;23;19925;-78
2022/06/01 01:14:14;;;;;;;;;;;16.40;77.00;;;;;;6095971;23;19921;-79
2022/06/01 01:16:41;;;;;;;;;;;16.40;76.80;;;;;;6096325;23;20342;-79
2022/06/01 01:19:19;;;;;;;;;;;16.40;76.60;;;;;;6096371;23;19921;-82
2022/06/01 01:21:52;;;;;;;;;;;16.40;76.60;;;;;;6096271;23;19928;-79
2022/06/01 01:24:38;;;;;;;;;;;16.40;76.30;;;;;;6097365;23;19925;-79
2022/06/01 01:27:05;;;;;;;;;;;16.40;76.60;;;;;;6095849;23;19968;-79
2022/06/01 01:29:36;;;;;;;;;;;16.30;76.10;;;;;;6096381;23;19984;-78
2022/06/01 01:32:05;;;;;;;;;;;16.30;76.10;;;;;;6096473;23;19976;-78
2022/06/01 01:34:33;;;;;;;;;;;16.30;76.30;;;;;;6096521;23;19927;-78
2022/06/01 01:37:01;;;;;;;;;;;16.30;76.70;;;;;;6095944;23;20378;-83
2022/06/01 01:39:30;;;;;;;;;;;16.30;76.50;;;;;;6096405;23;19921;-81
2022/06/01 01:41:58;;;;;;;;;;;16.30;76.50;;;;;;6095804;23;19921;-79
2022/06/01 01:44:26;;;;;;;;;;;16.30;76.50;;;;;;6096017;23;19973;-81
2022/06/01 01:46:54;;;;;;;;;;;16.30;76.50;;;;;;6095747;23;19925;-78
2022/06/01 01:49:22;;;;;;;;;;;16.30;76.50;;;;;;6095999;23;20239;-78
2022/06/01 01:51:53;;;;;;;;;;;16.30;76.50;;;;;;6095796;23;19922;-82
2022/06/01 01:54:26;;;;;;;;;;;16.30;76.40;;;;;;6097081;23;19997;-79
2022/06/01 01:57:11;;;;;;;;;;;16.20;76.70;;;;;;6098403;23;20290;-78
2022/06/01 02:00:01;;;;;;;;;;;16.20;76.80;;;;;;6097992;23;19953;-79
2022/06/01 02:02:35;;;;;;;;;;;16.20;77.00;;;;;;6099706;23;19969;-78
2022/06/01 02:08:07;;;;;;;;;;;16.20;77.20;;;;;;6099456;23;19925;-78
2022/06/01 02:13:21;;;;;;;;;;;16.20;77.30;;;;;;6099547;23;19929;-82
2022/06/01 02:15:50;;;;;;;;;;;16.20;77.40;;;;;;6097889;23;19925;-82
2022/06/01 02:18:19;;;;;;;;;;;16.20;77.40;;;;;;6098635;23;19921;-82
2022/06/01 02:20:48;;;;;;;;;;;16.20;77.40;;;;;;6098032;23;20066;-79
2022/06/01 02:23:15;;;;;;;;;;;16.20;77.40;;;;;;6098462;23;20322;-82
2022/06/01 02:25:44;;;;;;;;;;;16.20;77.50;;;;;;6098018;23;19921;-77
2022/06/01 02:28:11;;;;;;;;;;;16.20;77.40;;;;;;6098236;23;19925;-78
2022/06/01 02:30:40;;;;;;;;;;;16.20;77.30;;;;;;6098091;23;19921;-81
2022/06/01 02:33:08;;;;;;;;;;;16.20;77.30;;;;;;6099058;23;19943;-81
2022/06/01 02:35:38;;;;;;;;;;;16.20;77.20;;;;;;6097890;23;19921;-78
2022/06/01 02:38:10;;;;;;;;;;;16.20;77.40;;;;;;6097679;23;19988;-79
2022/06/01 02:40:37;;;;;;;;;;;16.20;77.40;;;;;;6099306;23;19921;-81
2022/06/01 02:43:04;;;;;;;;;;;16.20;77.40;;;;;;6098136;23;19981;-82
2022/06/01 02:45:31;;;;;;;;;;;16.20;77.20;;;;;;6099063;23;19976;-78
2022/06/01 02:47:59;;;;;;;;;;;16.10;77.10;;;;;;6097543;23;19921;-79
2022/06/01 02:50:27;;;;;;;;;;;16.10;77.10;;;;;;6098116;23;19927;-78
2022/06/01 02:52:54;;;;;;;;;;;16.10;77.00;;;;;;6097480;23;19921;-78
2022/06/01 02:55:22;;;;;;;;;;;16.00;77.20;;;;;;6097946;23;20235;-79
2022/06/01 02:57:49;;;;;;;;;;;16.00;77.10;;;;;;6097977;23;19949;-78
2022/06/01 03:00:18;;;;;;;;;;;16.00;78.20;;;;;;6097682;23;19922;-78
2022/06/01 03:02:46;;;;;;;;;;;15.90;77.50;;;;;;6097320;23;20270;-78
2022/06/01 03:05:14;;;;;;;;;;;16.00;77.70;;;;;;6097129;23;19945;-81
2022/06/01 03:07:41;;;;;;;;;;;15.90;77.60;;;;;;6097316;23;19921;-78
2022/06/01 03:10:09;;;;;;;;;;;15.90;78.00;;;;;;6097154;23;19921;-79
2022/06/01 03:12:37;;;;;;;;;;;15.90;77.90;;;;;;6097353;23;19976;-78
2022/06/01 03:15:04;;;;;;;;;;;15.90;77.70;;;;;;6097526;23;19957;-78
2022/06/01 03:17:31;;;;;;;;;;;15.80;77.50;;;;;;6097444;23;20346;-79
2022/06/01 03:19:58;;;;;;;;;;;15.80;77.80;;;;;;6097444;23;19929;-81
2022/06/01 03:22:25;;;;;;;;;;;15.70;78.00;;;;;;6098862;23;20306;-79
2022/06/01 03:24:52;;;;;;;;;;;15.60;78.10;;;;;;6097239;23;19932;-78
2022/06/01 03:27:18;;;;;;;;;;;15.50;78.20;;;;;;6098134;23;20347;-78
2022/06/01 03:29:45;;;;;;;;;;;15.50;78.30;;;;;;6097158;23;19921;-79
2022/06/01 03:32:12;;;;;;;;;;;15.40;78.60;;;;;;6097745;23;19921;-81
2022/06/01 03:34:39;;;;;;;;;;;15.30;78.50;;;;;;6098274;23;20001;-81
2022/06/01 03:37:06;;;;;;;;;;;15.30;78.80;;;;;;6097086;23;20365;-79
2022/06/01 03:39:33;;;;;;;;;;;15.20;79.20;;;;;;6097151;23;19922;-78
2022/06/01 03:41:59;;;;;;;;;;;15.20;79.60;;;;;;6097018;23;19929;-81
2022/06/01 03:47:11;;;;;;;;;;;15.20;80.20;;;;;;6098479;23;19932;-78
2022/06/01 03:49:38;;;;;;;;;;;15.20;80.50;;;;;;6097208;23;19921;-79
2022/06/01 03:52:06;;;;;;;;;;;15.30;80.50;;;;;;6096926;23;19929;-78
2022/06/01 03:54:33;;;;;;;;;;;15.30;80.60;;;;;;6096818;23;19976;-78
2022/06/01 03:56:59;;;;;;;;;;;15.40;80.60;;;;;;6097004;23;20294;-78
2022/06/01 03:59:28;;;;;;;;;;;15.40;80.60;;;;;;6097790;23;20294;-83
2022/06/01 04:01:55;;;;;;;;;;;15.50;80.40;;;;;;6097085;23;19930;-80
2022/06/01 04:04:22;;;;;;;;;;;15.40;80.00;;;;;;6096979;23;20394;-82
2022/06/01 04:06:49;;;;;;;;;;;15.40;79.90;;;;;;6098235;23;19929;-79
2022/06/01 04:09:15;;;;;;;;;;;15.30;79.70;;;;;;6096453;23;20289;-79
2022/06/01 04:11:42;;;;;;;;;;;15.30;79.70;;;;;;6096860;23;19921;-79
2022/06/01 04:14:09;;;;;;;;;;;15.30;79.90;;;;;;6096906;23;19921;-78
2022/06/01 04:16:35;;;;;;;;;;;15.30;79.90;;;;;;6096637;23;19921;-80
2022/06/01 04:19:03;;;;;;;;;;;15.30;80.10;;;;;;6096881;23;19998;-83
2022/06/01 04:21:32;;;;;;;;;;;15.30;80.20;;;;;;6096789;23;20334;-79
2022/06/01 04:24:01;;;;;;;;;;;15.30;80.30;;;;;;6097252;23;19921;-80
2022/06/01 04:26:27;;;;;;;;;;;15.30;80.40;;;;;;6096693;23;19925;-82
2022/06/01 04:28:55;;;;;;;;;;;15.40;80.00;;;;;;6096858;23;19925;-79
2022/06/01 04:31:22;;;;;;;;;;;15.40;80.10;;;;;;6098022;23;19924;-79
2022/06/01 04:33:49;;;;;;;;;;;15.40;79.90;;;;;;6096562;23;19936;-79
2022/06/01 04:36:15;;;;;;;;;;;15.50;79.80;;;;;;6096528;23;20240;-79
2022/06/01 04:38:42;;;;;;;;;;;15.60;79.80;;;;;;6096530;23;19945;-79
2022/06/01 04:41:09;;;;;;;;;;;15.60;79.60;;;;;;6096488;23;19925;-79
2022/06/01 04:43:36;;;;;;;;;;;15.70;79.40;;;;;;6096565;23;19921;-84
2022/06/01 04:46:02;;;;;;;;;;;15.70;79.10;;;;;;6096784;23;19925;-78
2022/06/01 04:48:29;;;;;;;;;;;15.80;78.90;;;;;;6096618;23;20342;-80
2022/06/01 04:50:58;;;;;;;;;;;15.80;78.70;;;;;;6096659;23;20604;-80
2022/06/01 04:53:25;;;;;;;;;;;15.90;78.60;;;;;;6096631;23;20310;-80
2022/06/01 04:55:51;;;;;;;;;;;15.90;78.50;;;;;;6095913;23;20272;-79
2022/06/01 04:58:18;;;;;;;;;;;15.90;78.50;;;;;;6096188;23;19992;-80
2022/06/01 05:00:45;;;;;;;;;;;16.00;78.50;;;;;;6096427;23;19929;-82
2022/06/01 05:03:13;;;;;;;;;;;16.00;78.20;;;;;;6095894;23;20282;-80
2022/06/01 05:05:40;;;;;;;;;;;16.00;78.20;;;;;;6095823;23;19925;-81
2022/06/01 05:08:09;;;;;;;;;;;16.10;77.60;;;;;;6096529;23;20024;-81
2022/06/01 05:10:36;;;;;;;;;;;16.10;77.40;;;;;;6095998;23;19972;-82
2022/06/01 05:13:03;;;;;;;;;;;16.20;77.40;;;;;;6096825;23;20393;-79
2022/06/01 05:15:30;;;;;;;;;;;16.20;77.20;;;;;;6095855;23;20353;-81
2022/06/01 05:17:57;;;;;;;;;;;16.20;77.00;;;;;;6096523;23;19929;-83
2022/06/01 05:20:23;;;;;;;;;;;16.20;77.20;;;;;;6096227;23;19922;-79
2022/06/01 05:22:50;;;;;;;;;;;16.30;76.90;;;;;;6097856;23;20431;-79
2022/06/01 05:25:29;;;;;;;;;;;16.30;76.40;;;;;;6096383;23;19968;-80
2022/06/01 05:27:56;;;;;;;;;;;16.40;76.40;;;;;;6096268;23;19929;-78
2022/06/01 05:30:23;;;;;;;;;;;16.40;76.30;;;;;;6096067;23;20338;-79
2022/06/01 05:32:49;;;;;;;;;;;16.40;76.20;;;;;;6095101;23;19986;-82
2022/06/01 05:35:16;;;;;;;;;;;16.40;77.10;;;;;;6094566;23;19921;-78
2022/06/01 05:37:43;;;;;;;;;;;16.50;76.00;;;;;;6094078;23;19953;-79
2022/06/01 05:40:10;;;;;;;;;;;16.50;76.00;;;;;;6095280;23;19932;-79
2022/06/01 05:42:36;;;;;;;;;;;16.60;75.80;;;;;;6096014;23;19922;-79
2022/06/01 05:45:04;;;;;;;;;;;16.60;75.80;;;;;;6096205;23;20342;-78
2022/06/01 05:47:30;;;;;;;;;;;16.60;75.50;;;;;;6096333;23;19921;-82
2022/06/01 05:49:57;;;;;;;;;;;16.70;75.40;;;;;;6095910;23;19921;-79
2022/06/01 05:52:24;;;;;;;;;;;16.70;75.40;;;;;;6095771;23;20298;-78
2022/06/01 05:54:51;;;;;;;;;;;16.80;75.30;;;;;;6096223;23;19921;-79
2022/06/01 05:57:17;;;;;;;;;;;16.80;75.30;;;;;;6095635;23;19925;-82
2022/06/01 05:59:44;;;;;;;;;;;16.80;74.60;;;;;;6095882;23;20253;-78
2022/06/01 06:02:11;;;;;;;;;;;16.90;74.60;;;;;;6096189;23;19967;-78
2022/06/01 06:04:38;;;;;;;;;;;17.00;74.30;;;;;;6095726;23;19922;-83
2022/06/01 06:07:05;;;;;;;;;;;17.00;74.50;;;;;;6095923;23;19973;-79
2022/06/01 06:09:32;;;;;;;;;;;17.10;74.40;;;;;;6096327;23;19921;-78
2022/06/01 06:11:59;;;;;;;;;;;17.20;74.00;;;;;;6095775;23;19989;-79
2022/06/01 06:14:25;;;;;;;;;;;17.20;73.90;;;;;;6095926;23;20342;-82
2022/06/01 06:16:52;;;;;;;;;;;17.30;73.70;;;;;;6096028;23;19929;-79
2022/06/01 06:19:20;;;;;;;;;;;17.40;73.60;;;;;;6096439;23;19921;-78
2022/06/01 06:21:47;;;;;;;;;;;17.40;73.50;;;;;;6097078;23;19944;-78
2022/06/01 06:24:15;;;;;;;;;;;17.50;73.30;;;;;;6097679;23;19921;-78
2022/06/01 06:26:42;;;;;;;;;;;17.60;72.30;;;;;;6096129;23;20355;-82
2022/06/01 06:29:10;;;;;;;;;;;17.70;72.30;;;;;;6096050;23;19921;-78
2022/06/01 06:31:38;;;;;;;;;;;17.80;71.80;;;;;;6095647;23;19976;-78
2022/06/01 06:34:12;;;;;;;;;;;17.90;71.00;;;;;;6097494;23;20401;-82
2022/06/01 06:36:39;;;;;;;;;;;18.00;70.80;;;;;;6096197;23;19925;-78
2022/06/01 06:39:06;;;;;;;;;;;18.10;70.60;;;;;;6095859;23;19922;-77
2022/06/01 06:41:33;;;;;;;;;;;18.30;70.20;;;;;;6097402;23;19992;-79
2022/06/01 06:44:00;;;;;;;;;;;18.40;69.70;;;;;;6097729;23;20346;-79
2022/06/01 06:46:27;;;;;;;;;;;18.60;69.40;;;;;;6097391;23;20409;-77
2022/06/01 06:48:54;;;;;;;;;;;18.70;69.50;;;;;;6098167;23;19969;-78
2022/06/01 06:51:22;;;;;;;;;;;18.80;69.70;;;;;;6097239;23;20310;-82
2022/06/01 06:53:49;;;;;;;;;;;19.00;68.00;;;;;;6097695;23;19929;-78
2022/06/01 06:56:17;;;;;;;;;;;19.00;68.40;;;;;;6097233;23;19945;-78
2022/06/01 06:58:44;;;;;;;;;;;19.20;67.90;;;;;;6096907;23;19921;-79
2022/06/01 07:01:10;;;;;;;;;;;19.30;67.80;;;;;;6097419;23;19921;-78
2022/06/01 07:03:37;;;;;;;;;;;19.40;67.10;;;;;;6097454;23;19981;-78
2022/06/01 07:06:13;;;;;;;;;;;19.50;66.80;;;;;;6097583;23;19956;-82
2022/06/01 07:08:44;;;;;;;;;;;19.70;65.50;;;;;;6098950;23;19925;-79
2022/06/01 07:11:12;;;;;;;;;;;19.80;65.50;;;;;;6097489;23;19922;-79
2022/06/01 07:13:39;;;;;;;;;;;19.80;65.10;;;;;;6097663;23;20008;-78
2022/06/01 07:16:13;;;;;;;;;;;19.90;64.70;;;;;;6130139;23;19924;-78
2022/06/01 07:18:42;;;;;;;;;;;20.00;64.00;;;;;;6129930;23;20376;-81
2022/06/01 07:21:09;;;;;;;;;;;20.20;62.80;;;;;;6129907;23;19928;-81
2022/06/01 07:23:37;;;;;;;;;;;20.20;63.40;;;;;;6129364;23;19928;-81
2022/06/01 07:26:05;;;;;;;;;;;20.40;63.50;;;;;;6129807;23;20004;-80
2022/06/01 07:28:32;;;;;;;;;;;20.50;63.50;;;;;;6129410;23;20341;-80
2022/06/01 07:30:59;;;;;;;;;;;20.70;65.80;;;;;;6130310;23;19921;-79
2022/06/01 07:33:28;;;;;;;;;;;20.90;66.60;;;;;;6129849;23;19921;-79
2022/06/01 07:35:55;;;;;;;;;;;21.10;66.50;;;;;;6129611;23;19925;-79
2022/06/01 07:43:55;;;;;;;;;;;21.40;64.50;;;;;;6155473;23;20000;-83
2022/06/01 07:46:22;;;;;;;;;;;21.50;64.10;;;;;;6129659;23;19921;-78
2022/06/01 07:48:49;;;;;;;;;;;21.50;64.10;;;;;;6129895;23;20301;-79
2022/06/01 07:51:37;;;;;;;;;;;21.50;65.00;;;;;;6132910;23;19920;-78
2022/06/01 07:54:05;;;;;;;;;;;21.60;63.90;;;;;;6129688;23;19920;-79
2022/06/01 07:56:32;;;;;;;;;;;21.70;64.20;;;;;;6129766;23;20400;-79
2022/06/01 07:58:58;;;;;;;;;;;21.80;63.70;;;;;;6129429;23;20408;-83
2022/06/01 08:01:26;;;;;;;;;;;21.80;64.80;;;;;;6129534;23;19925;-78
2022/06/01 08:03:57;;;;;;;;;;;21.90;64.40;;;;;;6129609;23;19924;-78
2022/06/01 08:06:25;;;;;;;;;;;22.00;62.60;;;;;;6129563;23;19927;-78
2022/06/01 08:09:13;;;;;;;;;;;22.30;60.60;;;;;;6133879;23;19940;-83
2022/06/01 08:14:25;;;;;;;;;;;22.60;60.30;;;;;;6074801;23;1880174;-80
2022/06/01 08:16:52;;;;;;;;;;;22.80;58.40;;;;;;6131026;23;20317;-79
2022/06/01 08:19:19;;;;;;;;;;;22.80;56.40;;;;;;6130539;23;19920;-78
2022/06/01 08:21:46;;;;;;;;;;;22.90;56.60;;;;;;6130917;23;19948;-82
2022/06/01 08:24:13;;;;;;;;;;;23.00;54.90;;;;;;6156758;23;19931;-82
2022/06/01 08:26:39;;;;;;;;;;;23.00;54.80;;;;;;6131097;23;19962;-78
2022/06/01 08:29:06;;;;;;;;;;;23.00;55.90;;;;;;6130912;23;19921;-78
2022/06/01 08:31:34;;;;;;;;;;;23.00;56.00;;;;;;6130858;23;19925;-82
2022/06/01 08:34:02;;;;;;;;;;;23.00;56.40;;;;;;6130622;23;20013;-78
2022/06/01 08:36:29;;;;;;;;;;;23.10;56.20;;;;;;6130741;23;19920;-82
2022/06/01 08:38:55;;;;;;;;;;;23.10;56.10;;;;;;6130706;23;19964;-79
2022/06/01 08:41:27;;;;;;;;;;;23.10;55.40;;;;;;6130659;23;19924;-78
2022/06/01 08:43:57;;;;;;;;;;;23.10;54.80;;;;;;6156717;23;19968;-83
2022/06/01 08:46:26;;;;;;;;;;;23.10;55.90;;;;;;6130667;23;20396;-82
2022/06/01 08:48:55;;;;;;;;;;;23.20;54.90;;;;;;6130657;23;19924;-83
2022/06/01 08:51:23;;;;;;;;;;;23.20;54.80;;;;;;6130678;23;19927;-78
2022/06/01 08:53:53;;;;;;;;;;;23.20;54.10;;;;;;6156576;23;19999;-80
2022/06/01 08:56:25;;;;;;;;;;;23.30;54.50;;;;;;6130892;23;19924;-80
2022/06/01 08:58:57;;;;;;;;;;;23.30;54.70;;;;;;6131062;23;20298;-78
2022/06/01 09:01:31;;;;;;;;;;;23.30;52.70;;;;;;6130677;23;20301;-78
2022/06/01 09:04:02;;;;;;;;;;;23.30;54.10;;;;;;6130678;23;19920;-78
2022/06/01 09:06:33;;;;;;;;;;;23.40;54.60;;;;;;6156367;23;19952;-82
2022/06/01 09:09:03;;;;;;;;;;;23.40;53.70;;;;;;6130892;23;19924;-82
2022/06/01 09:11:34;;;;;;;;;;;23.40;53.20;;;;;;6130561;23;19999;-79
2022/06/01 09:14:09;;;;;;;;;;;23.60;53.40;;;;;;6130410;23;19999;-82
2022/06/01 09:16:37;;;;;;;;;;;23.60;53.20;;;;;;6130417;23;19921;-82
2022/06/01 09:19:07;;;;;;;;;;;23.60;52.40;;;;;;6130237;23;19952;-79
2022/06/01 09:24:32;;;;;;;;;;;23.70;53.60;;;;;;6155947;23;19925;-78
2022/06/01 09:26:59;;;;;;;;;;;23.90;53.20;;;;;;6130445;23;19951;-80
2022/06/01 09:29:28;;;;;;;;;;;24.00;53.20;;;;;;6130381;23;20261;-81
2022/06/01 09:31:56;;;;;;;;;;;24.10;53.60;;;;;;6130573;23;20357;-78
2022/06/01 09:34:30;;;;;;;;;;;24.30;53.30;;;;;;6129990;23;19924;-80
2022/06/01 09:37:17;;;;;;;;;;;24.50;52.70;;;;;;6130540;23;19920;-78
2022/06/01 09:39:56;;;;;;;;;;;24.80;51.70;;;;;;6120104;23;19959;-80
2022/06/01 09:42:28;;;;;;;;;;;24.90;51.50;;;;;;6130459;23;19933;-79
2022/06/01 09:44:57;;;;;;;;;;;25.00;51.50;;;;;;6130393;23;19924;-79
2022/06/01 09:47:35;;;;;;;;;;;25.10;50.80;;;;;;6130075;23;19983;-79
2022/06/01 09:50:04;;;;;;;;;;;25.00;50.60;;;;;;6130180;23;19967;-79
2022/06/01 09:52:34;;;;;;;;;;;25.00;50.20;;;;;;6130170;23;19920;-78
2022/06/01 09:55:15;;;;;;;;;;;25.10;50.40;;;;;;6130318;23;19920;-82
2022/06/01 09:57:43;;;;;;;;;;;25.20;49.60;;;;;;6129893;23;19952;-78
2022/06/01 10:06:12;;;;;;;;;;;25.70;48.70;;;;;;6156060;23;20285;-80
2022/06/01 10:08:42;;;;;;;;;;;25.90;48.50;;;;;;6130122;23;19975;-79
2022/06/01 10:11:21;;;;;;;;;;;26.00;47.40;;;;;;6130636;23;20359;-82
2022/06/01 10:13:49;;;;;;;;;;;25.90;47.20;;;;;;6130149;23;19920;-78
2022/06/01 10:16:42;;;;;;;;;;;25.70;46.80;;;;;;6132040;23;19956;-79
2022/06/01 10:19:12;;;;;;;;;;;25.60;47.00;;;;;;6131063;23;19921;-80
2022/06/01 10:21:42;;;;;;;;;;;25.70;46.80;;;;;;6132642;23;20287;-80
2022/06/01 10:24:12;;;;;;;;;;;25.70;47.00;;;;;;6132130;23;19924;-79
2022/06/01 10:26:43;;;;;;;;;;;25.80;47.10;;;;;;6132095;23;19921;-79
2022/06/01 10:29:18;;;;;;;;;;;25.70;47.00;;;;;;6132015;23;19924;-82
2022/06/01 10:32:08;;;;;;;;;;;25.80;47.70;;;;;;6131531;23;20312;-80
2022/06/01 10:34:41;;;;;;;;;;;26.00;48.50;;;;;;6132494;23;19925;-82
2022/06/01 10:37:11;;;;;;;;;;;26.30;47.70;;;;;;6132606;23;20350;-83
2022/06/01 10:39:50;;;;;;;;;;;26.40;46.90;;;;;;6131843;23;19971;-83
2022/06/01 10:42:23;;;;;;;;;;;26.60;46.50;;;;;;6157503;23;19975;-83
2022/06/01 10:44:58;;;;;;;;;;;26.90;45.40;;;;;;6132100;23;19972;-80
2022/06/01 10:47:30;;;;;;;;;;;27.10;45.50;;;;;;6131323;23;19928;-80
2022/06/01 10:50:17;;;;;;;;;;;27.30;44.80;;;;;;6131714;23;20345;-84
2022/06/01 10:52:48;;;;;;;;;;;27.50;43.50;;;;;;6131763;23;19929;-79
2022/06/01 10:55:18;;;;;;;;;;;27.60;42.90;;;;;;6132229;23;19956;-80
2022/06/01 10:57:45;;;;;;;;;;;27.60;42.90;;;;;;6131946;23;19925;-80
2022/06/01 11:00:17;;;;;;;;;;;27.70;43.30;;;;;;6131964;23;19936;-80
2022/06/01 11:02:56;;;;;;;;;;;27.80;42.50;;;;;;6131888;23;19921;-79
2022/06/01 11:05:26;;;;;;;;;;;27.90;42.40;;;;;;6132461;23;19932;-83
2022/06/01 11:07:58;;;;;;;;;;;28.00;42.50;;;;;;6131546;23;19929;-78
2022/06/01 11:10:25;;;;;;;;;;;28.00;40.70;;;;;;6132103;23;19968;-83
2022/06/01 11:13:08;;;;;;;;;;;27.70;41.70;;;;;;6132048;23;20376;-80
2022/06/01 11:16:13;;;;;;;;;;;27.50;42.10;;;;;;6102785;23;20314;-80
2022/06/01 11:18:52;;;;;;;;;;;27.30;43.40;;;;;;6038852;23;19922;-79
2022/06/01 11:21:27;;;;;;;;;;;27.20;42.90;;;;;;6038602;23;20027;-83
2022/06/01 11:24:02;;;;;;;;;;;26.90;42.00;;;;;;6064106;23;19997;-83
2022/06/01 11:26:48;;;;;;;;;;;26.70;43.40;;;;;;6097140;23;20306;-79
2022/06/01 11:29:25;;;;;;;;;;;26.70;43.80;;;;;;6097078;23;19926;-80
2022/06/01 11:32:01;;;;;;;;;;;26.60;43.70;;;;;;6096706;23;19929;-83
2022/06/01 11:34:46;;;;;;;;;;;26.70;43.80;;;;;;6096855;23;19925;-80
2022/06/01 11:37:17;;;;;;;;;;;26.70;43.80;;;;;;6097209;23;19925;-80
2022/06/01 11:39:47;;;;;;;;;;;26.80;44.60;;;;;;6095743;23;20019;-84
2022/06/01 11:42:26;;;;;;;;;;;26.80;44.90;;;;;;6098260;23;19926;-81
2022/06/01 11:45:10;;;;;;;;;;;26.80;44.10;;;;;;6096185;23;19921;-80
2022/06/01 11:47:43;;;;;;;;;;;26.80;44.50;;;;;;6096269;23;19973;-80
2022/06/01 11:50:10;;;;;;;;;;;26.90;44.80;;;;;;6096624;23;19925;-80
2022/06/01 11:52:43;;;;;;;;;;;27.00;44.60;;;;;;6097275;23;19922;-79
2022/06/01 11:55:15;;;;;;;;;;;27.20;43.70;;;;;;6096841;23;19928;-82
2022/06/01 11:57:44;;;;;;;;;;;27.30;43.60;;;;;;6096871;23;19921;-79
2022/06/01 12:00:14;;;;;;;;;;;27.40;43.80;;;;;;6097124;23;19925;-80
2022/06/01 12:02:41;;;;;;;;;;;27.40;44.20;;;;;;6096151;23;19977;-82
2022/06/01 12:05:32;;;;;;;;;;;27.40;43.80;;;;;;6096763;23;19928;-79
2022/06/01 12:08:15;;;;;;;;;;;27.10;43.00;;;;;;6090062;23;19921;-79
2022/06/01 12:10:50;;;;;;;;;;;26.90;45.00;;;;;;6096704;23;20330;-79
2022/06/01 12:13:30;;;;;;;;;;;26.70;44.80;;;;;;6096927;23;20339;-79
2022/06/01 12:16:08;;;;;;;;;;;26.60;44.80;;;;;;6153417;23;19924;-80
2022/06/01 12:18:35;;;;;;;;;;;26.40;45.30;;;;;;6130956;23;19947;-80
2022/06/01 12:21:20;;;;;;;;;;;26.30;46.10;;;;;;6131294;23;19925;-82
2022/06/01 12:29:38;;;;;;;;;;;26.40;47.50;;;;;;6156186;23;19920;-79
2022/06/01 12:32:07;;;;;;;;;;;26.50;46.90;;;;;;6130892;23;20269;-80
2022/06/01 12:34:38;;;;;;;;;;;26.60;46.60;;;;;;6130786;23;19930;-79
2022/06/01 12:37:06;;;;;;;;;;;26.70;46.40;;;;;;6130689;23;19928;-83
2022/06/01 12:39:35;;;;;;;;;;;26.90;47.10;;;;;;6156763;23;19972;-80
2022/06/01 12:42:03;;;;;;;;;;;26.90;45.90;;;;;;6131156;23;20304;-80
2022/06/01 12:44:34;;;;;;;;;;;27.00;45.00;;;;;;6130506;23;19932;-83
2022/06/01 12:47:01;;;;;;;;;;;26.80;45.30;;;;;;6130050;23;20226;-84
2022/06/01 12:49:32;;;;;;;;;;;26.70;45.50;;;;;;6129788;23;20404;-80
2022/06/01 12:52:04;;;;;;;;;;;26.70;45.90;;;;;;6130598;23;19921;-80
2022/06/01 12:54:33;;;;;;;;;;;26.50;45.80;;;;;;6128571;23;19921;-80
2022/06/01 12:57:00;;;;;;;;;;;26.30;46.30;;;;;;6130206;23;19979;-83
2022/06/01 12:59:31;;;;;;;;;;;26.20;46.80;;;;;;6130004;23;19924;-79
2022/06/01 13:02:04;;;;;;;;;;;26.00;47.20;;;;;;6130629;23;19931;-83
2022/06/01 13:04:35;;;;;;;;;;;26.00;47.90;;;;;;6131824;23;20281;-81
2022/06/01 13:07:02;;;;;;;;;;;26.10;48.50;;;;;;6130682;23;19921;-80
2022/06/01 13:09:30;;;;;;;;;;;26.10;48.40;;;;;;6130545;23;20017;-80
2022/06/01 13:12:02;;;;;;;;;;;26.10;48.80;;;;;;6130998;23;20307;-79
2022/06/01 13:14:30;;;;;;;;;;;26.10;47.30;;;;;;6129347;23;19925;-83
2022/06/01 13:17:01;;;;;;;;;;;26.20;46.90;;;;;;6128274;23;19975;-83
2022/06/01 13:19:29;;;;;;;;;;;26.10;46.70;;;;;;6129188;23;20392;-83
2022/06/01 13:21:59;;;;;;;;;;;26.00;46.10;;;;;;6129840;23;19924;-79
2022/06/01 13:24:27;;;;;;;;;;;26.00;46.70;;;;;;6156389;23;19971;-80
2022/06/01 13:26:55;;;;;;;;;;;26.00;47.20;;;;;;6130972;23;20226;-79
2022/06/01 13:29:35;;;;;;;;;;;26.00;47.20;;;;;;6131159;23;19920;-83
2022/06/01 13:32:06;;;;;;;;;;;26.00;46.80;;;;;;6156363;23;20360;-80
2022/06/01 13:34:39;;;;;;;;;;;26.00;47.70;;;;;;6130642;23;20013;-80
2022/06/01 13:37:10;;;;;;;;;;;26.00;48.00;;;;;;6154410;23;19932;-80
2022/06/01 13:39:40;;;;;;;;;;;26.10;47.60;;;;;;6128048;23;19976;-79
2022/06/01 13:42:07;;;;;;;;;;;26.10;47.30;;;;;;6128949;23;19934;-80
2022/06/01 13:44:54;;;;;;;;;;;26.10;47.30;;;;;;6153182;23;19932;-84
2022/06/01 13:47:23;;;;;;;;;;;26.10;47.00;;;;;;6129193;23;19925;-84
2022/06/01 13:49:50;;;;;;;;;;;26.00;46.70;;;;;;6130342;23;20327;-82
2022/06/01 13:52:17;;;;;;;;;;;26.10;46.20;;;;;;6129088;23;19975;-80
2022/06/01 13:54:48;;;;;;;;;;;26.20;46.60;;;;;;6130105;23;19967;-83
2022/06/01 13:57:17;;;;;;;;;;;26.40;46.90;;;;;;6130269;23;19928;-79
2022/06/01 14:00:04;;;;;;;;;;;26.40;46.30;;;;;;6130450;23;19924;-83
2022/06/01 14:02:33;;;;;;;;;;;26.40;45.80;;;;;;6156570;23;19924;-80
2022/06/01 14:05:01;;;;;;;;;;;26.50;45.60;;;;;;6131696;23;19967;-80
2022/06/01 14:07:34;;;;;;;;;;;26.60;45.60;;;;;;6132225;23;19921;-79
2022/06/01 14:10:03;;;;;;;;;;;26.80;45.50;;;;;;6131121;23;19928;-80
2022/06/01 14:12:29;;;;;;;;;;;27.20;45.50;;;;;;6131880;23;19924;-79
2022/06/01 14:14:57;;;;;;;;;;;27.50;45.10;;;;;;6131353;23;19928;-80
2022/06/01 14:17:25;;;;;;;;;;;27.60;44.30;;;;;;6131559;23;19967;-79
2022/06/01 14:19:52;;;;;;;;;;;27.60;43.60;;;;;;6131662;23;19983;-83
2022/06/01 14:22:18;;;;;;;;;;;27.50;44.50;;;;;;6131646;23;20301;-79
2022/06/01 14:30:38;;;;;;;;;;;27.80;43.60;;;;;;6039303;23;19978;-79
2022/06/01 14:33:06;;;;;;;;;;;28.00;42.60;;;;;;6097921;23;19979;-80
2022/06/01 14:35:33;;;;;;;;;;;28.40;43.00;;;;;;6130585;23;19945;-79
2022/06/01 14:38:02;;;;;;;;;;;28.70;41.60;;;;;;6132225;23;20337;-83
2022/06/01 14:40:29;;;;;;;;;;;28.90;41.70;;;;;;6131981;23;19920;-84
2022/06/01 14:42:56;;;;;;;;;;;29.10;41.20;;;;;;6131909;23;19984;-80
2022/06/01 14:45:23;;;;;;;;;;;29.00;40.80;;;;;;6131398;23;19920;-80
2022/06/01 14:47:50;;;;;;;;;;;29.00;41.30;;;;;;6130273;23;20261;-83
2022/06/01 14:50:17;;;;;;;;;;;29.10;40.70;;;;;;6131221;23;19976;-80
2022/06/01 14:52:44;;;;;;;;;;;29.30;40.60;;;;;;6130765;23;20337;-80
2022/06/01 14:55:10;;;;;;;;;;;29.50;40.50;;;;;;6131876;23;19921;-80
2022/06/01 14:57:37;;;;;;;;;;;29.80;40.40;;;;;;6131494;23;19921;-83
2022/06/01 15:00:06;;;;;;;;;;;30.00;39.10;;;;;;6131034;23;19967;-80
2022/06/01 15:02:33;;;;;;;;;;;30.00;39.00;;;;;;6130980;23;19996;-81
2022/06/01 15:05:01;;;;;;;;;;;30.10;39.00;;;;;;6131234;23;19925;-80
2022/06/01 15:07:28;;;;;;;;;;;30.20;39.00;;;;;;6156824;23;19921;-80